sensor_id;sensor_type;location;lat;lon;timestamp;P1;durP1;ratioP1;P2;durP2;ratioP2
21458;SDS011;10891;49.350;19.386;2022-10-18T00:01:51;10.82;;;4.93;;
21458;SDS011;10891;49.350;19.386;2022-10-18T00:04:18;10.05;;;4.97;;
21458;SDS011;10891;49.350;19.386;2022-10-18T00:06:46;7.60;;;4.30;;
21458;SDS011;10891;49.350;19.386;2022-10-18T00:09:13;9.55;;;5.00;;
21458;SDS011;10891;49.350;19.386;2022-10-18T00:11:40;7.28;;;4.32;;
21458;SDS011;10891;49.350;19.386;2022-10-18T00:14:07;7.18;;;4.63;;
21458;SDS011;10891;49.350;19.386;2022-10-18T00:16:34;6.93;;;4.63;;
21458;SDS011;10891;49.350;19.386;2022-10-18T00:19:01;8.85;;;4.18;;
21458;SDS011;10891;49.350;19.386;2022-10-18T00:21:28;7.63;;;4.35;;
21458;SDS011;10891;49.350;19.386;2022-10-18T00:23:56;8.13;;;4.38;;
21458;SDS011;10891;49.350;19.386;2022-10-18T00:26:23;9.90;;;5.10;;
21458;SDS011;10891;49.350;19.386;2022-10-18T00:28:52;10.38;;;4.63;;
21458;SDS011;10891;49.350;19.386;2022-10-18T00:31:22;8.20;;;5.15;;
21458;SDS011;10891;49.350;19.386;2022-10-18T00:33:50;10.65;;;4.72;;
21458;SDS011;10891;49.350;19.386;2022-10-18T00:36:19;7.57;;;4.47;;
21458;SDS011;10891;49.350;19.386;2022-10-18T00:38:46;7.05;;;4.00;;
21458;SDS011;10891;49.350;19.386;2022-10-18T00:41:15;7.70;;;4.47;;
21458;SDS011;10891;49.350;19.386;2022-10-18T00:43:52;9.70;;;4.30;;
21458;SDS011;10891;49.350;19.386;2022-10-18T00:46:20;8.27;;;4.60;;
21458;SDS011;10891;49.350;19.386;2022-10-18T00:48:48;7.97;;;4.10;;
21458;SDS011;10891;49.350;19.386;2022-10-18T00:51:15;5.78;;;4.00;;
21458;SDS011;10891;49.350;19.386;2022-10-18T00:53:45;8.60;;;4.13;;
21458;SDS011;10891;49.350;19.386;2022-10-18T00:56:12;7.97;;;4.13;;
21458;SDS011;10891;49.350;19.386;2022-10-18T00:58:40;8.35;;;3.95;;
21458;SDS011;10891;49.350;19.386;2022-10-18T01:01:08;6.80;;;4.65;;
21458;SDS011;10891;49.350;19.386;2022-10-18T01:03:38;6.30;;;4.40;;
21458;SDS011;10891;49.350;19.386;2022-10-18T01:06:06;12.02;;;4.53;;
21458;SDS011;10891;49.350;19.386;2022-10-18T01:08:44;8.48;;;4.40;;
21458;SDS011;10891;49.350;19.386;2022-10-18T01:11:43;9.73;;;4.78;;
21458;SDS011;10891;49.350;19.386;2022-10-18T01:14:32;7.95;;;5.05;;
21458;SDS011;10891;49.350;19.386;2022-10-18T01:17:07;7.35;;;4.07;;
21458;SDS011;10891;49.350;19.386;2022-10-18T01:22:42;6.10;;;3.63;;
21458;SDS011;10891;49.350;19.386;2022-10-18T01:25:16;6.63;;;3.50;;
21458;SDS011;10891;49.350;19.386;2022-10-18T01:27:54;7.05;;;4.30;;
21458;SDS011;10891;49.350;19.386;2022-10-18T01:33:24;9.75;;;3.70;;
21458;SDS011;10891;49.350;19.386;2022-10-18T01:35:56;6.78;;;3.88;;
21458;SDS011;10891;49.350;19.386;2022-10-18T01:38:26;6.97;;;3.97;;
21458;SDS011;10891;49.350;19.386;2022-10-18T01:40:56;8.63;;;4.45;;
21458;SDS011;10891;49.350;19.386;2022-10-18T01:43:25;7.25;;;3.95;;
21458;SDS011;10891;49.350;19.386;2022-10-18T01:45:56;5.07;;;3.50;;
21458;SDS011;10891;49.350;19.386;2022-10-18T01:48:25;6.47;;;4.05;;
21458;SDS011;10891;49.350;19.386;2022-10-18T01:50:52;7.85;;;3.42;;
21458;SDS011;10891;49.350;19.386;2022-10-18T01:53:23;6.60;;;3.72;;
21458;SDS011;10891;49.350;19.386;2022-10-18T01:56:04;6.38;;;4.10;;
21458;SDS011;10891;49.350;19.386;2022-10-18T01:59:02;7.40;;;4.00;;
21458;SDS011;10891;49.350;19.386;2022-10-18T02:01:40;5.00;;;3.55;;
21458;SDS011;10891;49.350;19.386;2022-10-18T02:04:18;6.97;;;4.63;;
21458;SDS011;10891;49.350;19.386;2022-10-18T02:06:52;8.85;;;4.55;;
21458;SDS011;10891;49.350;19.386;2022-10-18T02:09:28;6.07;;;4.47;;
21458;SDS011;10891;49.350;19.386;2022-10-18T02:12:02;8.30;;;4.65;;
21458;SDS011;10891;49.350;19.386;2022-10-18T02:14:31;7.40;;;4.95;;
21458;SDS011;10891;49.350;19.386;2022-10-18T02:17:02;6.97;;;5.53;;
21458;SDS011;10891;49.350;19.386;2022-10-18T02:19:33;10.52;;;5.60;;
21458;SDS011;10891;49.350;19.386;2022-10-18T02:22:02;7.57;;;4.38;;
21458;SDS011;10891;49.350;19.386;2022-10-18T02:24:32;9.00;;;4.93;;
21458;SDS011;10891;49.350;19.386;2022-10-18T02:27:01;5.57;;;4.28;;
21458;SDS011;10891;49.350;19.386;2022-10-18T02:29:28;8.63;;;4.30;;
21458;SDS011;10891;49.350;19.386;2022-10-18T02:31:58;10.35;;;5.30;;
21458;SDS011;10891;49.350;19.386;2022-10-18T02:34:34;7.97;;;4.75;;
21458;SDS011;10891;49.350;19.386;2022-10-18T02:37:04;6.97;;;4.90;;
21458;SDS011;10891;49.350;19.386;2022-10-18T02:39:33;8.95;;;4.53;;
21458;SDS011;10891;49.350;19.386;2022-10-18T02:42:02;9.05;;;4.68;;
21458;SDS011;10891;49.350;19.386;2022-10-18T02:44:32;7.63;;;4.32;;
21458;SDS011;10891;49.350;19.386;2022-10-18T02:46:59;8.93;;;4.85;;
21458;SDS011;10891;49.350;19.386;2022-10-18T02:49:28;9.80;;;4.63;;
21458;SDS011;10891;49.350;19.386;2022-10-18T02:51:54;10.82;;;5.55;;
21458;SDS011;10891;49.350;19.386;2022-10-18T02:54:21;7.85;;;4.85;;
21458;SDS011;10891;49.350;19.386;2022-10-18T02:56:49;7.28;;;4.55;;
21458;SDS011;10891;49.350;19.386;2022-10-18T02:59:16;7.55;;;4.13;;
21458;SDS011;10891;49.350;19.386;2022-10-18T03:01:43;8.35;;;4.53;;
21458;SDS011;10891;49.350;19.386;2022-10-18T03:04:10;9.45;;;4.68;;
21458;SDS011;10891;49.350;19.386;2022-10-18T03:06:38;10.05;;;5.18;;
21458;SDS011;10891;49.350;19.386;2022-10-18T03:09:05;9.02;;;5.03;;
21458;SDS011;10891;49.350;19.386;2022-10-18T03:11:32;10.52;;;5.22;;
21458;SDS011;10891;49.350;19.386;2022-10-18T03:13:59;8.88;;;5.38;;
21458;SDS011;10891;49.350;19.386;2022-10-18T03:16:26;10.80;;;4.90;;
21458;SDS011;10891;49.350;19.386;2022-10-18T03:18:53;9.15;;;4.95;;
21458;SDS011;10891;49.350;19.386;2022-10-18T03:21:19;7.65;;;4.65;;
21458;SDS011;10891;49.350;19.386;2022-10-18T03:23:48;11.77;;;5.10;;
21458;SDS011;10891;49.350;19.386;2022-10-18T03:26:14;11.52;;;5.45;;
21458;SDS011;10891;49.350;19.386;2022-10-18T03:28:41;10.38;;;5.30;;
21458;SDS011;10891;49.350;19.386;2022-10-18T03:31:08;9.85;;;4.95;;
21458;SDS011;10891;49.350;19.386;2022-10-18T03:33:35;9.50;;;5.07;;
21458;SDS011;10891;49.350;19.386;2022-10-18T03:36:02;10.05;;;5.30;;
21458;SDS011;10891;49.350;19.386;2022-10-18T03:38:29;8.50;;;4.97;;
21458;SDS011;10891;49.350;19.386;2022-10-18T03:40:57;9.85;;;5.00;;
21458;SDS011;10891;49.350;19.386;2022-10-18T03:43:24;9.25;;;4.65;;
21458;SDS011;10891;49.350;19.386;2022-10-18T03:45:51;8.52;;;5.28;;
21458;SDS011;10891;49.350;19.386;2022-10-18T03:48:18;12.57;;;5.22;;
21458;SDS011;10891;49.350;19.386;2022-10-18T03:50:44;16.02;;;5.28;;
21458;SDS011;10891;49.350;19.386;2022-10-18T03:53:11;11.52;;;4.95;;
21458;SDS011;10891;49.350;19.386;2022-10-18T03:55:38;10.57;;;4.65;;
21458;SDS011;10891;49.350;19.386;2022-10-18T03:58:07;8.70;;;4.88;;
21458;SDS011;10891;49.350;19.386;2022-10-18T04:00:33;9.75;;;4.80;;
21458;SDS011;10891;49.350;19.386;2022-10-18T04:03:00;9.65;;;5.30;;
21458;SDS011;10891;49.350;19.386;2022-10-18T04:05:27;9.07;;;4.93;;
21458;SDS011;10891;49.350;19.386;2022-10-18T04:07:55;6.43;;;4.78;;
21458;SDS011;10891;49.350;19.386;2022-10-18T04:10:22;10.73;;;4.97;;
21458;SDS011;10891;49.350;19.386;2022-10-18T04:12:49;8.57;;;4.72;;
21458;SDS011;10891;49.350;19.386;2022-10-18T04:15:17;10.80;;;5.30;;
21458;SDS011;10891;49.350;19.386;2022-10-18T04:17:44;10.88;;;5.20;;
21458;SDS011;10891;49.350;19.386;2022-10-18T04:20:11;10.65;;;5.18;;
21458;SDS011;10891;49.350;19.386;2022-10-18T04:22:38;7.63;;;5.00;;
21458;SDS011;10891;49.350;19.386;2022-10-18T04:25:06;8.40;;;5.50;;
21458;SDS011;10891;49.350;19.386;2022-10-18T04:27:33;7.25;;;4.88;;
21458;SDS011;10891;49.350;19.386;2022-10-18T04:30:00;8.18;;;4.88;;
21458;SDS011;10891;49.350;19.386;2022-10-18T04:32:28;10.88;;;5.90;;
21458;SDS011;10891;49.350;19.386;2022-10-18T04:34:55;7.75;;;5.53;;
21458;SDS011;10891;49.350;19.386;2022-10-18T04:37:22;9.90;;;6.40;;
21458;SDS011;10891;49.350;19.386;2022-10-18T04:39:49;12.98;;;6.47;;
21458;SDS011;10891;49.350;19.386;2022-10-18T04:42:16;10.52;;;6.55;;
21458;SDS011;10891;49.350;19.386;2022-10-18T04:44:43;11.35;;;5.28;;
21458;SDS011;10891;49.350;19.386;2022-10-18T04:47:10;10.88;;;5.45;;
21458;SDS011;10891;49.350;19.386;2022-10-18T04:49:38;8.23;;;5.20;;
21458;SDS011;10891;49.350;19.386;2022-10-18T04:52:05;9.52;;;5.25;;
21458;SDS011;10891;49.350;19.386;2022-10-18T04:54:32;8.90;;;5.03;;
21458;SDS011;10891;49.350;19.386;2022-10-18T04:56:59;8.10;;;4.90;;
21458;SDS011;10891;49.350;19.386;2022-10-18T04:59:25;9.57;;;5.38;;
21458;SDS011;10891;49.350;19.386;2022-10-18T05:01:52;10.38;;;5.43;;
21458;SDS011;10891;49.350;19.386;2022-10-18T05:04:19;11.80;;;5.38;;
21458;SDS011;10891;49.350;19.386;2022-10-18T05:06:48;6.28;;;4.50;;
21458;SDS011;10891;49.350;19.386;2022-10-18T05:09:15;10.43;;;5.18;;
21458;SDS011;10891;49.350;19.386;2022-10-18T05:11:42;12.23;;;4.50;;
21458;SDS011;10891;49.350;19.386;2022-10-18T05:14:08;11.30;;;5.07;;
21458;SDS011;10891;49.350;19.386;2022-10-18T05:16:35;8.68;;;4.13;;
21458;SDS011;10891;49.350;19.386;2022-10-18T05:19:03;7.65;;;4.72;;
21458;SDS011;10891;49.350;19.386;2022-10-18T05:21:30;5.57;;;4.22;;
21458;SDS011;10891;49.350;19.386;2022-10-18T05:23:58;10.80;;;4.65;;
21458;SDS011;10891;49.350;19.386;2022-10-18T05:26:25;8.15;;;4.97;;
21458;SDS011;10891;49.350;19.386;2022-10-18T05:28:52;10.25;;;4.75;;
21458;SDS011;10891;49.350;19.386;2022-10-18T05:31:19;13.95;;;4.75;;
21458;SDS011;10891;49.350;19.386;2022-10-18T05:33:46;9.77;;;4.95;;
21458;SDS011;10891;49.350;19.386;2022-10-18T05:36:13;9.65;;;5.18;;
21458;SDS011;10891;49.350;19.386;2022-10-18T05:38:40;10.73;;;5.38;;
21458;SDS011;10891;49.350;19.386;2022-10-18T05:41:09;7.25;;;4.65;;
21458;SDS011;10891;49.350;19.386;2022-10-18T05:43:37;6.82;;;4.30;;
21458;SDS011;10891;49.350;19.386;2022-10-18T05:46:04;11.52;;;4.45;;
21458;SDS011;10891;49.350;19.386;2022-10-18T05:48:32;8.48;;;4.50;;
21458;SDS011;10891;49.350;19.386;2022-10-18T05:50:59;7.10;;;4.97;;
21458;SDS011;10891;49.350;19.386;2022-10-18T05:53:26;7.10;;;4.28;;
21458;SDS011;10891;49.350;19.386;2022-10-18T05:55:54;9.05;;;4.80;;
21458;SDS011;10891;49.350;19.386;2022-10-18T05:58:22;7.85;;;5.28;;
21458;SDS011;10891;49.350;19.386;2022-10-18T06:00:49;7.45;;;4.40;;
21458;SDS011;10891;49.350;19.386;2022-10-18T06:03:16;11.65;;;5.15;;
21458;SDS011;10891;49.350;19.386;2022-10-18T06:05:42;9.00;;;4.93;;
21458;SDS011;10891;49.350;19.386;2022-10-18T06:08:09;10.80;;;4.38;;
21458;SDS011;10891;49.350;19.386;2022-10-18T06:10:37;7.90;;;4.60;;
21458;SDS011;10891;49.350;19.386;2022-10-18T06:13:04;5.65;;;4.00;;
21458;SDS011;10891;49.350;19.386;2022-10-18T06:15:33;5.70;;;4.22;;
21458;SDS011;10891;49.350;19.386;2022-10-18T06:17:59;12.77;;;4.45;;
21458;SDS011;10891;49.350;19.386;2022-10-18T06:20:26;7.35;;;4.47;;
21458;SDS011;10891;49.350;19.386;2022-10-18T06:22:53;6.40;;;4.13;;
21458;SDS011;10891;49.350;19.386;2022-10-18T06:25:20;9.93;;;4.30;;
21458;SDS011;10891;49.350;19.386;2022-10-18T06:27:47;7.68;;;4.57;;
21458;SDS011;10891;49.350;19.386;2022-10-18T06:30:14;7.82;;;4.38;;
21458;SDS011;10891;49.350;19.386;2022-10-18T06:32:42;7.45;;;4.90;;
21458;SDS011;10891;49.350;19.386;2022-10-18T06:35:09;12.15;;;5.30;;
21458;SDS011;10891;49.350;19.386;2022-10-18T06:37:36;7.90;;;4.18;;
21458;SDS011;10891;49.350;19.386;2022-10-18T06:40:03;7.70;;;4.75;;
21458;SDS011;10891;49.350;19.386;2022-10-18T06:42:30;9.93;;;4.82;;
21458;SDS011;10891;49.350;19.386;2022-10-18T06:44:57;9.57;;;5.57;;
21458;SDS011;10891;49.350;19.386;2022-10-18T06:47:25;10.82;;;4.93;;
21458;SDS011;10891;49.350;19.386;2022-10-18T06:49:53;10.43;;;4.70;;
21458;SDS011;10891;49.350;19.386;2022-10-18T06:52:20;14.40;;;4.57;;
21458;SDS011;10891;49.350;19.386;2022-10-18T06:54:49;7.95;;;4.15;;
21458;SDS011;10891;49.350;19.386;2022-10-18T06:57:16;14.05;;;6.60;;
21458;SDS011;10891;49.350;19.386;2022-10-18T06:59:45;25.05;;;14.52;;
21458;SDS011;10891;49.350;19.386;2022-10-18T07:02:12;13.95;;;8.23;;
21458;SDS011;10891;49.350;19.386;2022-10-18T07:04:41;7.28;;;5.50;;
21458;SDS011;10891;49.350;19.386;2022-10-18T07:07:09;14.55;;;7.13;;
21458;SDS011;10891;49.350;19.386;2022-10-18T07:09:36;9.52;;;5.15;;
21458;SDS011;10891;49.350;19.386;2022-10-18T07:12:03;7.78;;;4.47;;
21458;SDS011;10891;49.350;19.386;2022-10-18T07:14:30;9.93;;;4.47;;
21458;SDS011;10891;49.350;19.386;2022-10-18T07:16:57;7.43;;;4.68;;
21458;SDS011;10891;49.350;19.386;2022-10-18T07:19:24;8.50;;;4.13;;
21458;SDS011;10891;49.350;19.386;2022-10-18T07:21:51;8.40;;;4.25;;
21458;SDS011;10891;49.350;19.386;2022-10-18T07:24:19;6.65;;;4.60;;
21458;SDS011;10891;49.350;19.386;2022-10-18T07:26:46;5.43;;;3.97;;
21458;SDS011;10891;49.350;19.386;2022-10-18T07:29:13;7.55;;;4.30;;
21458;SDS011;10891;49.350;19.386;2022-10-18T07:31:40;12.70;;;3.83;;
21458;SDS011;10891;49.350;19.386;2022-10-18T07:34:08;15.00;;;3.97;;
21458;SDS011;10891;49.350;19.386;2022-10-18T07:36:37;4.40;;;3.22;;
21458;SDS011;10891;49.350;19.386;2022-10-18T07:39:04;9.32;;;4.07;;
21458;SDS011;10891;49.350;19.386;2022-10-18T07:41:32;6.22;;;4.18;;
21458;SDS011;10891;49.350;19.386;2022-10-18T07:44:00;7.05;;;3.85;;
21458;SDS011;10891;49.350;19.386;2022-10-18T07:46:27;9.13;;;4.40;;
21458;SDS011;10891;49.350;19.386;2022-10-18T07:48:54;11.18;;;3.75;;
21458;SDS011;10891;49.350;19.386;2022-10-18T07:51:22;10.50;;;3.83;;
21458;SDS011;10891;49.350;19.386;2022-10-18T07:53:49;6.60;;;3.30;;
21458;SDS011;10891;49.350;19.386;2022-10-18T07:56:17;5.43;;;2.75;;
21458;SDS011;10891;49.350;19.386;2022-10-18T07:58:47;6.32;;;3.15;;
21458;SDS011;10891;49.350;19.386;2022-10-18T08:01:16;8.35;;;3.75;;
21458;SDS011;10891;49.350;19.386;2022-10-18T08:03:43;6.00;;;3.53;;
21458;SDS011;10891;49.350;19.386;2022-10-18T08:06:11;9.48;;;5.05;;
21458;SDS011;10891;49.350;19.386;2022-10-18T08:08:40;7.40;;;3.90;;
21458;SDS011;10891;49.350;19.386;2022-10-18T08:11:08;6.57;;;3.42;;
21458;SDS011;10891;49.350;19.386;2022-10-18T08:13:36;7.22;;;3.30;;
21458;SDS011;10891;49.350;19.386;2022-10-18T08:16:05;6.28;;;3.33;;
21458;SDS011;10891;49.350;19.386;2022-10-18T08:18:33;14.48;;;3.03;;
21458;SDS011;10891;49.350;19.386;2022-10-18T08:21:01;8.38;;;3.47;;
21458;SDS011;10891;49.350;19.386;2022-10-18T08:23:28;6.78;;;3.00;;
21458;SDS011;10891;49.350;19.386;2022-10-18T08:25:55;7.15;;;3.75;;
21458;SDS011;10891;49.350;19.386;2022-10-18T08:28:22;5.50;;;3.35;;
21458;SDS011;10891;49.350;19.386;2022-10-18T08:30:49;5.63;;;3.88;;
21458;SDS011;10891;49.350;19.386;2022-10-18T08:33:17;6.85;;;2.70;;
21458;SDS011;10891;49.350;19.386;2022-10-18T08:35:53;10.52;;;3.20;;
21458;SDS011;10891;49.350;19.386;2022-10-18T08:38:20;5.82;;;2.85;;
21458;SDS011;10891;49.350;19.386;2022-10-18T08:40:47;4.97;;;2.58;;
21458;SDS011;10891;49.350;19.386;2022-10-18T08:43:15;4.97;;;2.33;;
21458;SDS011;10891;49.350;19.386;2022-10-18T08:45:52;4.47;;;2.95;;
21458;SDS011;10891;49.350;19.386;2022-10-18T08:48:22;6.00;;;2.50;;
21458;SDS011;10891;49.350;19.386;2022-10-18T08:50:55;7.53;;;2.53;;
21458;SDS011;10891;49.350;19.386;2022-10-18T08:53:25;4.90;;;2.90;;
21458;SDS011;10891;49.350;19.386;2022-10-18T08:55:57;11.18;;;3.33;;
21458;SDS011;10891;49.350;19.386;2022-10-18T08:58:28;5.55;;;2.38;;
21458;SDS011;10891;49.350;19.386;2022-10-18T09:01:00;8.68;;;2.90;;
21458;SDS011;10891;49.350;19.386;2022-10-18T09:03:47;4.88;;;3.05;;
21458;SDS011;10891;49.350;19.386;2022-10-18T09:06:24;5.43;;;2.40;;
21458;SDS011;10891;49.350;19.386;2022-10-18T09:09:01;3.55;;;2.40;;
21458;SDS011;10891;49.350;19.386;2022-10-18T09:11:46;5.10;;;2.38;;
21458;SDS011;10891;49.350;19.386;2022-10-18T09:17:14;6.05;;;2.25;;
21458;SDS011;10891;49.350;19.386;2022-10-18T09:19:54;5.95;;;3.25;;
21458;SDS011;10891;49.350;19.386;2022-10-18T09:25:17;3.65;;;2.55;;
21458;SDS011;10891;49.350;19.386;2022-10-18T09:27:49;4.97;;;2.97;;
21458;SDS011;10891;49.350;19.386;2022-10-18T09:33:15;2.40;;;2.20;;
21458;SDS011;10891;49.350;19.386;2022-10-18T09:35:53;8.32;;;2.05;;
21458;SDS011;10891;49.350;19.386;2022-10-18T09:38:28;6.07;;;2.10;;
21458;SDS011;10891;49.350;19.386;2022-10-18T09:40:58;4.68;;;2.25;;
21458;SDS011;10891;49.350;19.386;2022-10-18T09:43:34;5.20;;;2.03;;
21458;SDS011;10891;49.350;19.386;2022-10-18T09:46:08;4.07;;;2.13;;
21458;SDS011;10891;49.350;19.386;2022-10-18T09:48:37;5.68;;;2.33;;
21458;SDS011;10891;49.350;19.386;2022-10-18T09:51:11;2.95;;;1.80;;
21458;SDS011;10891;49.350;19.386;2022-10-18T09:53:42;3.28;;;2.25;;
21458;SDS011;10891;49.350;19.386;2022-10-18T09:56:17;5.88;;;2.10;;
21458;SDS011;10891;49.350;19.386;2022-10-18T09:58:50;2.58;;;1.90;;
21458;SDS011;10891;49.350;19.386;2022-10-18T10:01:18;4.90;;;2.17;;
21458;SDS011;10891;49.350;19.386;2022-10-18T10:03:48;3.65;;;2.20;;
21458;SDS011;10891;49.350;19.386;2022-10-18T10:06:21;6.80;;;2.30;;
21458;SDS011;10891;49.350;19.386;2022-10-18T10:08:58;5.85;;;2.15;;
21458;SDS011;10891;49.350;19.386;2022-10-18T10:11:30;6.55;;;2.10;;
21458;SDS011;10891;49.350;19.386;2022-10-18T10:14:13;4.30;;;2.08;;
21458;SDS011;10891;49.350;19.386;2022-10-18T10:16:45;3.78;;;2.33;;
21458;SDS011;10891;49.350;19.386;2022-10-18T10:19:18;5.75;;;2.45;;
21458;SDS011;10891;49.350;19.386;2022-10-18T10:21:50;7.38;;;2.50;;
21458;SDS011;10891;49.350;19.386;2022-10-18T10:24:23;5.40;;;2.47;;
21458;SDS011;10891;49.350;19.386;2022-10-18T10:26:57;3.33;;;1.85;;
21458;SDS011;10891;49.350;19.386;2022-10-18T10:32:19;2.42;;;1.95;;
21458;SDS011;10891;49.350;19.386;2022-10-18T10:34:47;7.13;;;3.10;;
21458;SDS011;10891;49.350;19.386;2022-10-18T10:40:12;11.10;;;2.30;;
21458;SDS011;10891;49.350;19.386;2022-10-18T10:45:33;5.70;;;2.40;;
21458;SDS011;10891;49.350;19.386;2022-10-18T10:48:03;3.85;;;2.15;;
21458;SDS011;10891;49.350;19.386;2022-10-18T10:53:36;6.50;;;2.22;;
21458;SDS011;10891;49.350;19.386;2022-10-18T10:56:12;5.72;;;2.28;;
21458;SDS011;10891;49.350;19.386;2022-10-18T10:58:51;6.60;;;3.28;;
21458;SDS011;10891;49.350;19.386;2022-10-18T11:01:22;3.97;;;2.35;;
21458;SDS011;10891;49.350;19.386;2022-10-18T11:03:51;4.75;;;2.05;;
21458;SDS011;10891;49.350;19.386;2022-10-18T11:06:31;5.22;;;2.20;;
21458;SDS011;10891;49.350;19.386;2022-10-18T11:12:19;3.90;;;2.10;;
21458;SDS011;10891;49.350;19.386;2022-10-18T11:14:51;4.45;;;1.88;;
21458;SDS011;10891;49.350;19.386;2022-10-18T11:17:26;21.67;;;2.60;;
21458;SDS011;10891;49.350;19.386;2022-10-18T11:20:09;10.45;;;2.45;;
21458;SDS011;10891;49.350;19.386;2022-10-18T11:22:42;4.18;;;2.00;;
21458;SDS011;10891;49.350;19.386;2022-10-18T11:25:14;2.28;;;1.92;;
21458;SDS011;10891;49.350;19.386;2022-10-18T11:27:42;3.17;;;2.22;;
21458;SDS011;10891;49.350;19.386;2022-10-18T11:30:21;11.00;;;3.47;;
21458;SDS011;10891;49.350;19.386;2022-10-18T11:33:04;9.65;;;3.83;;
21458;SDS011;10891;49.350;19.386;2022-10-18T11:35:41;5.78;;;2.35;;
21458;SDS011;10891;49.350;19.386;2022-10-18T11:38:15;5.00;;;1.98;;
21458;SDS011;10891;49.350;19.386;2022-10-18T11:41:01;4.32;;;2.40;;
21458;SDS011;10891;49.350;19.386;2022-10-18T11:43:40;7.18;;;2.65;;
21458;SDS011;10891;49.350;19.386;2022-10-18T11:46:13;7.32;;;2.42;;
21458;SDS011;10891;49.350;19.386;2022-10-18T11:48:52;6.32;;;2.65;;
21458;SDS011;10891;49.350;19.386;2022-10-18T11:51:43;5.88;;;1.83;;
21458;SDS011;10891;49.350;19.386;2022-10-18T11:54:26;8.15;;;3.55;;
21458;SDS011;10891;49.350;19.386;2022-10-18T11:57:06;9.38;;;3.25;;
21458;SDS011;10891;49.350;19.386;2022-10-18T11:59:42;4.32;;;2.30;;
21458;SDS011;10891;49.350;19.386;2022-10-18T12:02:21;3.72;;;1.80;;
21458;SDS011;10891;49.350;19.386;2022-10-18T12:05:02;6.50;;;2.17;;
21458;SDS011;10891;49.350;19.386;2022-10-18T12:07:31;5.10;;;2.15;;
21458;SDS011;10891;49.350;19.386;2022-10-18T12:10:02;10.57;;;3.17;;
21458;SDS011;10891;49.350;19.386;2022-10-18T12:12:34;3.50;;;2.05;;
21458;SDS011;10891;49.350;19.386;2022-10-18T12:15:12;6.93;;;2.72;;
21458;SDS011;10891;49.350;19.386;2022-10-18T12:17:43;41.53;;;5.22;;
21458;SDS011;10891;49.350;19.386;2022-10-18T12:20:13;64.85;;;6.78;;
21458;SDS011;10891;49.350;19.386;2022-10-18T12:22:45;6.32;;;2.10;;
21458;SDS011;10891;49.350;19.386;2022-10-18T12:25:15;7.80;;;2.03;;
21458;SDS011;10891;49.350;19.386;2022-10-18T12:27:47;5.28;;;2.15;;
21458;SDS011;10891;49.350;19.386;2022-10-18T12:30:22;7.30;;;2.30;;
21458;SDS011;10891;49.350;19.386;2022-10-18T12:32:56;9.48;;;3.70;;
21458;SDS011;10891;49.350;19.386;2022-10-18T12:35:30;25.35;;;3.78;;
21458;SDS011;10891;49.350;19.386;2022-10-18T12:38:09;42.50;;;5.88;;
21458;SDS011;10891;49.350;19.386;2022-10-18T12:40:45;4.43;;;1.80;;
21458;SDS011;10891;49.350;19.386;2022-10-18T12:43:17;25.38;;;9.20;;
21458;SDS011;10891;49.350;19.386;2022-10-18T12:45:49;13.18;;;2.63;;
21458;SDS011;10891;49.350;19.386;2022-10-18T12:48:33;4.75;;;1.58;;
21458;SDS011;10891;49.350;19.386;2022-10-18T12:51:04;31.95;;;4.05;;
21458;SDS011;10891;49.350;19.386;2022-10-18T12:53:37;9.70;;;4.60;;
21458;SDS011;10891;49.350;19.386;2022-10-18T13:02:21;3.38;;;1.70;;
21458;SDS011;10891;49.350;19.386;2022-10-18T13:04:51;2.13;;;1.70;;
21458;SDS011;10891;49.350;19.386;2022-10-18T13:07:19;3.80;;;2.10;;
21458;SDS011;10891;49.350;19.386;2022-10-18T13:16:20;7.40;;;3.05;;
21458;SDS011;10891;49.350;19.386;2022-10-18T13:18:58;9.80;;;3.75;;
21458;SDS011;10891;49.350;19.386;2022-10-18T13:21:39;13.35;;;2.92;;
21458;SDS011;10891;49.350;19.386;2022-10-18T13:24:20;21.70;;;3.67;;
21458;SDS011;10891;49.350;19.386;2022-10-18T13:26:55;7.55;;;2.78;;
21458;SDS011;10891;49.350;19.386;2022-10-18T13:29:45;25.13;;;3.38;;
21458;SDS011;10891;49.350;19.386;2022-10-18T13:32:23;3.65;;;2.10;;
21458;SDS011;10891;49.350;19.386;2022-10-18T13:34:56;7.18;;;3.20;;
21458;SDS011;10891;49.350;19.386;2022-10-18T13:37:23;3.58;;;2.03;;
21458;SDS011;10891;49.350;19.386;2022-10-18T13:39:51;18.73;;;4.55;;
21458;SDS011;10891;49.350;19.386;2022-10-18T13:42:47;6.40;;;2.33;;
21458;SDS011;10891;49.350;19.386;2022-10-18T13:51:24;44.05;;;14.30;;
21458;SDS011;10891;49.350;19.386;2022-10-18T13:54:13;5.80;;;3.70;;
21458;SDS011;10891;49.350;19.386;2022-10-18T14:02:41;8.23;;;5.00;;
21458;SDS011;10891;49.350;19.386;2022-10-18T14:05:35;19.75;;;4.22;;
21458;SDS011;10891;49.350;19.386;2022-10-18T14:08:16;16.30;;;5.85;;
21458;SDS011;10891;49.350;19.386;2022-10-18T14:10:49;7.05;;;3.63;;
21458;SDS011;10891;49.350;19.386;2022-10-18T14:13:23;92.13;;;11.75;;
21458;SDS011;10891;49.350;19.386;2022-10-18T14:15:55;14.70;;;6.85;;
21458;SDS011;10891;49.350;19.386;2022-10-18T14:18:29;253.13;;;24.45;;
21458;SDS011;10891;49.350;19.386;2022-10-18T14:20:59;41.60;;;10.52;;
21458;SDS011;10891;49.350;19.386;2022-10-18T14:23:32;62.25;;;9.10;;
21458;SDS011;10891;49.350;19.386;2022-10-18T14:26:05;70.47;;;10.60;;
21458;SDS011;10891;49.350;19.386;2022-10-18T14:28:33;38.55;;;8.45;;
21458;SDS011;10891;49.350;19.386;2022-10-18T14:31:01;124.22;;;13.02;;
21458;SDS011;10891;49.350;19.386;2022-10-18T14:33:31;7.95;;;3.20;;
21458;SDS011;10891;49.350;19.386;2022-10-18T14:36:01;21.00;;;4.22;;
21458;SDS011;10891;49.350;19.386;2022-10-18T14:38:34;3.88;;;2.85;;
21458;SDS011;10891;49.350;19.386;2022-10-18T14:41:03;10.82;;;3.42;;
21458;SDS011;10891;49.350;19.386;2022-10-18T14:43:32;5.25;;;2.70;;
21458;SDS011;10891;49.350;19.386;2022-10-18T14:46:15;17.48;;;4.13;;
21458;SDS011;10891;49.350;19.386;2022-10-18T14:48:52;5.80;;;3.55;;
21458;SDS011;10891;49.350;19.386;2022-10-18T14:51:19;5.68;;;2.95;;
21458;SDS011;10891;49.350;19.386;2022-10-18T14:53:48;9.15;;;3.08;;
21458;SDS011;10891;49.350;19.386;2022-10-18T14:56:18;10.15;;;4.45;;
21458;SDS011;10891;49.350;19.386;2022-10-18T14:58:48;9.63;;;3.80;;
21458;SDS011;10891;49.350;19.386;2022-10-18T15:01:16;6.18;;;3.22;;
21458;SDS011;10891;49.350;19.386;2022-10-18T15:03:45;4.82;;;3.03;;
21458;SDS011;10891;49.350;19.386;2022-10-18T15:06:14;7.13;;;3.38;;
21458;SDS011;10891;49.350;19.386;2022-10-18T15:08:43;4.97;;;2.83;;
21458;SDS011;10891;49.350;19.386;2022-10-18T15:11:13;14.95;;;8.10;;
21458;SDS011;10891;49.350;19.386;2022-10-18T15:13:43;5.82;;;3.88;;
21458;SDS011;10891;49.350;19.386;2022-10-18T15:16:14;7.43;;;3.90;;
21458;SDS011;10891;49.350;19.386;2022-10-18T15:18:43;10.60;;;3.83;;
21458;SDS011;10891;49.350;19.386;2022-10-18T15:21:23;9.40;;;5.65;;
21458;SDS011;10891;49.350;19.386;2022-10-18T15:23:50;11.98;;;6.82;;
21458;SDS011;10891;49.350;19.386;2022-10-18T15:26:21;9.15;;;6.15;;
21458;SDS011;10891;49.350;19.386;2022-10-18T15:28:51;12.05;;;5.72;;
21458;SDS011;10891;49.350;19.386;2022-10-18T15:31:23;11.52;;;6.53;;
21458;SDS011;10891;49.350;19.386;2022-10-18T15:33:52;17.30;;;9.07;;
21458;SDS011;10891;49.350;19.386;2022-10-18T15:36:24;19.45;;;11.18;;
21458;SDS011;10891;49.350;19.386;2022-10-18T15:39:02;29.48;;;15.73;;
21458;SDS011;10891;49.350;19.386;2022-10-18T15:41:42;26.17;;;11.90;;
21458;SDS011;10891;49.350;19.386;2022-10-18T15:44:18;33.25;;;15.05;;
21458;SDS011;10891;49.350;19.386;2022-10-18T15:46:48;40.58;;;19.98;;